Time;durP1;ratioP1;P1;durP2;ratioP2;P2;SDS_P1;SDS_P2;PMS_P1;PMS_P2;Temp;Humidity;BMP_temperature;BMP_pressure;BME280_temperature;BME280_humidity;BME280_pressure;Samples;Min_cycle;Max_cycle;Signal;HPM_P1;HPM_P2
2022/04/09 00:02:01;;;;;;;3.60;1.90;;;;;;;;;;5035919;28;20206;-86
2022/04/09 00:04:28;;;;;;;2.97;2.65;;;;;;;;;;5037448;28;20218;-86
2022/04/09 00:06:55;;;;;;;3.70;2.30;;;;;;;;;;5036725;28;20206;-86
2022/04/09 00:09:23;;;;;;;2.92;2.17;;;;;;;;;;5034322;28;20205;-86
2022/04/09 00:11:50;;;;;;;4.13;2.25;;;;;;;;;;5036215;28;20206;-85
2022/04/09 00:14:17;;;;;;;3.65;2.28;;;;;;;;;;5036071;28;20244;-86
2022/04/09 00:16:45;;;;;;;3.25;1.92;;;;;;;;;;5036641;28;20592;-86
2022/04/09 00:19:14;;;;;;;3.55;2.13;;;;;;;;;;5035035;28;20203;-86
2022/04/09 00:21:41;;;;;;;3.67;2.10;;;;;;;;;;5035623;28;20229;-86
2022/04/09 00:24:08;;;;;;;4.78;1.90;;;;;;;;;;5035592;28;20199;-86
2022/04/09 00:26:36;;;;;;;3.03;1.95;;;;;;;;;;5026543;28;20194;-86
2022/04/09 00:29:03;;;;;;;6.18;3.05;;;;;;;;;;5016014;28;20203;-86
2022/04/09 00:31:30;;;;;;;4.53;1.70;;;;;;;;;;5015497;28;20211;-86
2022/04/09 00:33:58;;;;;;;2.13;1.60;;;;;;;;;;5016047;28;20226;-86
2022/04/09 00:36:26;;;;;;;5.40;1.65;;;;;;;;;;5023254;28;20206;-85
2022/04/09 00:38:54;;;;;;;3.25;2.20;;;;;;;;;;5035637;28;20203;-85
2022/04/09 00:41:21;;;;;;;6.30;1.75;;;;;;;;;;5035903;28;20197;-86
2022/04/09 00:43:48;;;;;;;3.28;1.80;;;;;;;;;;5032330;28;20226;-86
2022/04/09 00:46:16;;;;;;;4.30;2.25;;;;;;;;;;5015541;28;20719;-85
2022/04/09 00:48:44;;;;;;;6.60;2.67;;;;;;;;;;5015817;28;20199;-86
2022/04/09 00:51:11;;;;;;;3.60;1.70;;;;;;;;;;5017834;28;20211;-86
2022/04/09 00:53:41;;;;;;;2.30;2.10;;;;;;;;;;5016436;28;20226;-86
2022/04/09 00:56:15;;;;;;;3.70;1.67;;;;;;;;;;5015552;28;20697;-87
2022/04/09 00:58:49;;;;;;;5.05;1.88;;;;;;;;;;5016319;28;20618;-86
2022/04/09 01:01:18;;;;;;;2.17;1.63;;;;;;;;;;5017086;28;20246;-84
2022/04/09 01:03:46;;;;;;;6.28;2.67;;;;;;;;;;5016190;28;20219;-86
2022/04/09 01:06:14;;;;;;;10.32;2.15;;;;;;;;;;5022474;28;20292;-86
2022/04/09 01:08:42;;;;;;;3.92;2.00;;;;;;;;;;5035609;28;20201;-86
2022/04/09 01:11:10;;;;;;;3.85;2.30;;;;;;;;;;5036735;28;20663;-85
2022/04/09 01:13:37;;;;;;;4.07;2.58;;;;;;;;;;5035974;28;20780;-86
2022/04/09 01:16:05;;;;;;;4.35;2.10;;;;;;;;;;5022907;28;20227;-85
2022/04/09 01:18:34;;;;;;;4.15;2.05;;;;;;;;;;5015664;28;20679;-86
2022/04/09 01:21:02;;;;;;;4.60;2.13;;;;;;;;;;5019146;28;20230;-86
2022/04/09 01:23:32;;;;;;;4.55;2.03;;;;;;;;;;5018704;28;20215;-86
2022/04/09 01:26:02;;;;;;;3.25;2.53;;;;;;;;;;5017613;28;20227;-85
2022/04/09 01:28:29;;;;;;;3.47;2.65;;;;;;;;;;5016209;28;20203;-85
2022/04/09 01:30:57;;;;;;;6.68;2.30;;;;;;;;;;5018794;28;20195;-85
2022/04/09 01:33:24;;;;;;;3.83;1.80;;;;;;;;;;5017080;28;20261;-85
2022/04/09 01:35:52;;;;;;;3.60;2.00;;;;;;;;;;5020584;28;20237;-86
2022/04/09 01:38:20;;;;;;;3.40;1.75;;;;;;;;;;5036445;28;20206;-85
2022/04/09 01:40:49;;;;;;;3.80;1.85;;;;;;;;;;5036559;28;20701;-86
2022/04/09 01:43:17;;;;;;;4.38;2.60;;;;;;;;;;5035981;28;20210;-85
2022/04/09 01:45:44;;;;;;;2.40;2.20;;;;;;;;;;5037105;28;20223;-86
2022/04/09 01:48:11;;;;;;;4.13;1.90;;;;;;;;;;5036126;28;20202;-86
2022/04/09 01:50:39;;;;;;;3.85;2.28;;;;;;;;;;5035342;28;20202;-85
2022/04/09 01:53:07;;;;;;;6.45;1.80;;;;;;;;;;5035436;28;20210;-86
2022/04/09 01:55:34;;;;;;;8.45;3.03;;;;;;;;;;5035815;28;20651;-85
2022/04/09 01:58:03;;;;;;;8.32;2.80;;;;;;;;;;5036109;28;20198;-85
2022/04/09 02:00:30;;;;;;;4.85;2.40;;;;;;;;;;5034437;28;20206;-85
2022/04/09 02:02:58;;;;;;;8.23;2.88;;;;;;;;;;5035602;28;20213;-86
2022/04/09 02:05:26;;;;;;;5.57;1.70;;;;;;;;;;5035208;28;20229;-86
2022/04/09 02:07:53;;;;;;;2.22;1.70;;;;;;;;;;5015641;28;20590;-86
2022/04/09 02:10:21;;;;;;;3.40;1.83;;;;;;;;;;5015302;28;20213;-86
2022/04/09 02:12:48;;;;;;;4.93;2.15;;;;;;;;;;5014906;28;20209;-85
2022/04/09 02:15:18;;;;;;;3.25;1.80;;;;;;;;;;5014650;28;20230;-86
2022/04/09 02:17:46;;;;;;;5.60;2.08;;;;;;;;;;5016162;28;20202;-86
2022/04/09 02:20:15;;;;;;;3.75;2.53;;;;;;;;;;5015422;28;20210;-86
2022/04/09 02:22:45;;;;;;;4.32;1.83;;;;;;;;;;5014700;28;20207;-86
2022/04/09 02:25:14;;;;;;;3.22;1.80;;;;;;;;;;5015910;28;20227;-86
2022/04/09 02:27:41;;;;;;;2.83;1.83;;;;;;;;;;5015973;28;20656;-85
2022/04/09 02:30:11;;;;;;;2.58;1.73;;;;;;;;;;5017275;28;20211;-85
2022/04/09 02:32:48;;;;;;;1.90;1.80;;;;;;;;;;5016715;28;20191;-86
2022/04/09 02:35:16;;;;;;;8.85;2.65;;;;;;;;;;5017246;28;20307;-85
2022/04/09 02:37:43;;;;;;;8.68;2.75;;;;;;;;;;5036482;28;20559;-85
2022/04/09 02:40:12;;;;;;;3.42;2.10;;;;;;;;;;5037004;28;20229;-86
2022/04/09 02:42:41;;;;;;;5.30;1.92;;;;;;;;;;5036164;28;20195;-86
2022/04/09 02:45:11;;;;;;;2.33;1.60;;;;;;;;;;5036454;28;20218;-86
2022/04/09 02:47:38;;;;;;;4.97;1.95;;;;;;;;;;5036977;28;20281;-85
2022/04/09 02:50:08;;;;;;;7.03;2.85;;;;;;;;;;5037421;28;20194;-86
2022/04/09 02:52:36;;;;;;;6.15;2.33;;;;;;;;;;5036582;28;20209;-85
2022/04/09 02:55:05;;;;;;;3.55;1.52;;;;;;;;;;5037503;28;20709;-86
2022/04/09 02:57:32;;;;;;;3.47;1.70;;;;;;;;;;5038043;28;20206;-86
2022/04/09 03:00:00;;;;;;;2.33;1.40;;;;;;;;;;5039978;28;20583;-85
2022/04/09 03:02:27;;;;;;;3.65;1.63;;;;;;;;;;5041234;28;20672;-86
2022/04/09 03:04:55;;;;;;;3.90;2.05;;;;;;;;;;5040914;28;20222;-85
2022/04/09 03:07:24;;;;;;;4.15;1.65;;;;;;;;;;5040165;28;20201;-86
2022/04/09 03:09:51;;;;;;;3.00;1.90;;;;;;;;;;5031858;28;20722;-87
2022/04/09 03:12:18;;;;;;;4.88;1.85;;;;;;;;;;5019894;28;20206;-86
2022/04/09 03:14:46;;;;;;;2.80;1.90;;;;;;;;;;5019720;28;20711;-86
2022/04/09 03:17:14;;;;;;;2.28;1.65;;;;;;;;;;5020264;28;20226;-86
2022/04/09 03:19:41;;;;;;;3.85;2.13;;;;;;;;;;5020276;28;20257;-86
2022/04/09 03:22:08;;;;;;;3.78;2.20;;;;;;;;;;5019928;28;20203;-85
2022/04/09 03:24:37;;;;;;;4.78;1.80;;;;;;;;;;5020129;28;20757;-85
2022/04/09 03:27:05;;;;;;;7.97;2.70;;;;;;;;;;5019981;28;20199;-85
2022/04/09 03:29:32;;;;;;;3.90;1.77;;;;;;;;;;5019545;28;20667;-86
2022/04/09 03:32:01;;;;;;;5.45;2.35;;;;;;;;;;5019023;28;20551;-85
2022/04/09 03:34:29;;;;;;;8.80;2.05;;;;;;;;;;5019862;28;20366;-86
2022/04/09 03:36:57;;;;;;;10.63;3.40;;;;;;;;;;5031271;28;20268;-85
2022/04/09 03:39:24;;;;;;;5.78;1.95;;;;;;;;;;5039005;28;20568;-85
2022/04/09 03:41:53;;;;;;;6.25;2.33;;;;;;;;;;5038320;28;20191;-85
2022/04/09 03:44:21;;;;;;;2.90;2.13;;;;;;;;;;5036429;28;20237;-86
2022/04/09 03:46:48;;;;;;;3.60;2.40;;;;;;;;;;5019662;28;20852;-85
2022/04/09 03:49:15;;;;;;;2.30;2.10;;;;;;;;;;5019278;28;20682;-85
2022/04/09 03:51:43;;;;;;;9.48;2.10;;;;;;;;;;5019601;28;20688;-86
2022/04/09 03:54:10;;;;;;;5.65;1.92;;;;;;;;;;5019115;28;20298;-86
2022/04/09 03:56:40;;;;;;;6.78;2.88;;;;;;;;;;5018281;28;20257;-85
2022/04/09 03:59:09;;;;;;;3.90;1.58;;;;;;;;;;5018709;28;20624;-86
2022/04/09 04:01:36;;;;;;;5.22;1.92;;;;;;;;;;5019794;28;20199;-88
2022/04/09 04:04:04;;;;;;;4.00;1.67;;;;;;;;;;5038370;28;20274;-86
2022/04/09 04:06:31;;;;;;;2.17;1.33;;;;;;;;;;5037688;28;20213;-86
2022/04/09 04:08:58;;;;;;;2.45;1.98;;;;;;;;;;5037951;28;20217;-86
2022/04/09 04:11:26;;;;;;;3.33;1.38;;;;;;;;;;5037204;28;20552;-86
2022/04/09 04:13:53;;;;;;;2.67;1.83;;;;;;;;;;5037577;28;20203;-86
2022/04/09 04:16:22;;;;;;;6.18;3.08;;;;;;;;;;5037280;28;20242;-86
2022/04/09 04:18:49;;;;;;;10.18;2.83;;;;;;;;;;5037619;28;20210;-87
2022/04/09 04:21:17;;;;;;;4.22;1.88;;;;;;;;;;5036653;28;20206;-86
2022/04/09 04:23:44;;;;;;;2.75;2.15;;;;;;;;;;5037484;28;20202;-86
2022/04/09 04:26:11;;;;;;;5.65;2.13;;;;;;;;;;5037355;28;20218;-86
2022/04/09 04:28:39;;;;;;;2.85;2.63;;;;;;;;;;5037744;28;20217;-86
2022/04/09 04:31:07;;;;;;;2.03;1.88;;;;;;;;;;5038715;28;20208;-86
2022/04/09 04:33:36;;;;;;;5.00;1.80;;;;;;;;;;5026528;28;20562;-86
2022/04/09 04:36:05;;;;;;;3.22;2.00;;;;;;;;;;5022772;28;20280;-86
2022/04/09 04:38:32;;;;;;;7.80;2.50;;;;;;;;;;5038126;28;20225;-86
2022/04/09 04:41:00;;;;;;;3.67;1.83;;;;;;;;;;5038154;28;20209;-86
2022/04/09 04:43:28;;;;;;;4.85;2.30;;;;;;;;;;5037941;28;20232;-87
2022/04/09 04:45:55;;;;;;;3.97;1.83;;;;;;;;;;5038571;28;20237;-86
2022/04/09 04:48:23;;;;;;;7.32;1.90;;;;;;;;;;5035543;28;20194;-86
2022/04/09 04:50:52;;;;;;;3.90;2.08;;;;;;;;;;5019598;28;20207;-86
2022/04/09 04:53:19;;;;;;;3.03;1.90;;;;;;;;;;5019214;28;20203;-86
2022/04/09 04:55:46;;;;;;;3.47;1.95;;;;;;;;;;5020921;28;20304;-86
2022/04/09 04:58:14;;;;;;;3.58;2.00;;;;;;;;;;5021258;28;20206;-86
2022/04/09 05:00:41;;;;;;;2.35;2.00;;;;;;;;;;5020029;28;20260;-85
2022/04/09 05:03:09;;;;;;;4.88;1.70;;;;;;;;;;5019422;28;20230;-85
2022/04/09 05:05:36;;;;;;;4.43;2.63;;;;;;;;;;5019709;28;20219;-86
2022/04/09 05:08:06;;;;;;;3.25;2.08;;;;;;;;;;5020468;28;20203;-86
2022/04/09 05:10:33;;;;;;;5.32;2.42;;;;;;;;;;5020124;28;20265;-86
2022/04/09 05:13:00;;;;;;;3.03;2.00;;;;;;;;;;5019568;28;20253;-86
2022/04/09 05:15:28;;;;;;;2.90;1.90;;;;;;;;;;5020689;28;20643;-85
2022/04/09 05:17:55;;;;;;;2.60;1.60;;;;;;;;;;5022669;28;20229;-85
2022/04/09 05:20:22;;;;;;;5.00;1.67;;;;;;;;;;5018951;28;20203;-86
2022/04/09 05:22:50;;;;;;;2.13;1.98;;;;;;;;;;5018864;28;20202;-85
2022/04/09 05:25:20;;;;;;;1.30;1.20;;;;;;;;;;5019323;28;20218;-85
2022/04/09 05:27:48;;;;;;;5.03;1.63;;;;;;;;;;5019774;28;20213;-83
2022/04/09 05:30:16;;;;;;;4.60;1.60;;;;;;;;;;5020500;28;20207;-83
2022/04/09 05:32:43;;;;;;;3.10;2.30;;;;;;;;;;5019341;28;20742;-82
2022/04/09 05:35:12;;;;;;;2.03;1.73;;;;;;;;;;5020335;28;20223;-83
2022/04/09 05:37:44;;;;;;;4.20;1.80;;;;;;;;;;5037097;28;20287;-83
2022/04/09 05:40:12;;;;;;;2.75;1.67;;;;;;;;;;5038307;28;20237;-83
2022/04/09 05:42:41;;;;;;;4.03;1.73;;;;;;;;;;5037440;28;20662;-84
2022/04/09 05:45:10;;;;;;;4.13;2.10;;;;;;;;;;5036150;28;20233;-81
2022/04/09 05:47:41;;;;;;;2.80;2.53;;;;;;;;;;5035780;28;20666;-82
2022/04/09 05:50:09;;;;;;;2.92;2.10;;;;;;;;;;5034085;28;20271;-81
2022/04/09 05:52:37;;;;;;;2.65;1.85;;;;;;;;;;5036420;28;20202;-81
2022/04/09 05:55:05;;;;;;;2.22;1.92;;;;;;;;;;5038546;28;20285;-82
2022/04/09 05:57:33;;;;;;;3.13;2.08;;;;;;;;;;5033987;28;20214;-82
2022/04/09 06:00:02;;;;;;;3.55;2.20;;;;;;;;;;5016160;28;20214;-82
2022/04/09 06:02:29;;;;;;;2.58;2.25;;;;;;;;;;5016000;28;20199;-82
2022/04/09 06:04:57;;;;;;;2.80;2.42;;;;;;;;;;5016338;28;20657;-82
2022/04/09 06:07:26;;;;;;;4.95;2.88;;;;;;;;;;5017179;28;20233;-81
2022/04/09 06:09:53;;;;;;;3.22;1.90;;;;;;;;;;5015840;28;20199;-81
2022/04/09 06:12:21;;;;;;;4.90;2.78;;;;;;;;;;5015212;28;20207;-81
2022/04/09 06:14:48;;;;;;;4.70;2.63;;;;;;;;;;5032215;28;20214;-82
2022/04/09 06:17:17;;;;;;;4.65;2.15;;;;;;;;;;5035686;28;20261;-82
2022/04/09 06:19:45;;;;;;;6.10;2.10;;;;;;;;;;5021919;28;20210;-81
2022/04/09 06:22:12;;;;;;;4.45;2.30;;;;;;;;;;5016029;28;20258;-81
2022/04/09 06:24:40;;;;;;;3.70;1.77;;;;;;;;;;5015722;28;20227;-81
2022/04/09 06:27:07;;;;;;;3.17;2.17;;;;;;;;;;5016471;28;20209;-82
2022/04/09 06:29:35;;;;;;;3.35;2.70;;;;;;;;;;5016493;28;20716;-82
2022/04/09 06:32:02;;;;;;;1.75;1.55;;;;;;;;;;5015101;28;20214;-83
2022/04/09 06:34:31;;;;;;;4.88;1.83;;;;;;;;;;5017326;28;20215;-82
2022/04/09 06:36:59;;;;;;;1.70;1.58;;;;;;;;;;5030912;28;20230;-81
2022/04/09 06:39:27;;;;;;;3.20;2.17;;;;;;;;;;5040171;28;20202;-82
2022/04/09 06:41:54;;;;;;;4.45;1.90;;;;;;;;;;5040391;28;20260;-81
2022/04/09 06:44:21;;;;;;;1.50;1.40;;;;;;;;;;5041618;28;20276;-82
2022/04/09 06:46:48;;;;;;;4.05;1.90;;;;;;;;;;5040699;28;20233;-82
2022/04/09 06:49:16;;;;;;;1.48;1.38;;;;;;;;;;5041019;28;20228;-82
2022/04/09 06:51:45;;;;;;;5.97;2.65;;;;;;;;;;5041215;28;20198;-82
2022/04/09 06:54:12;;;;;;;3.45;1.92;;;;;;;;;;5039263;28;20202;-82
2022/04/09 06:56:40;;;;;;;7.28;2.30;;;;;;;;;;5040197;28;20220;-82
2022/04/09 06:59:08;;;;;;;2.45;1.95;;;;;;;;;;5038412;28;20199;-82
2022/04/09 07:01:35;;;;;;;3.03;1.92;;;;;;;;;;5038598;28;20256;-81
2022/04/09 07:04:03;;;;;;;2.90;1.65;;;;;;;;;;5038044;28;20203;-82
2022/04/09 07:06:31;;;;;;;1.75;1.65;;;;;;;;;;5038070;28;20216;-82
2022/04/09 07:09:00;;;;;;;1.95;1.63;;;;;;;;;;5037015;28;20206;-81
2022/04/09 07:11:27;;;;;;;5.43;2.13;;;;;;;;;;5038432;28;20202;-80
2022/04/09 07:13:55;;;;;;;2.72;1.75;;;;;;;;;;5038637;28;20248;-82
2022/04/09 07:16:22;;;;;;;1.88;1.75;;;;;;;;;;5039184;28;20226;-82
2022/04/09 07:18:50;;;;;;;2.35;2.15;;;;;;;;;;5038333;28;20226;-83
2022/04/09 07:21:17;;;;;;;2.08;1.80;;;;;;;;;;5038668;28;20666;-83
2022/04/09 07:23:44;;;;;;;1.60;1.50;;;;;;;;;;5036051;28;20206;-82
2022/04/09 07:26:13;;;;;;;3.47;2.33;;;;;;;;;;5038107;28;20231;-82
2022/04/09 07:28:40;;;;;;;1.25;1.25;;;;;;;;;;5036929;28;20202;-82
2022/04/09 07:31:07;;;;;;;2.25;2.05;;;;;;;;;;5037235;28;20206;-82
2022/04/09 07:33:34;;;;;;;6.30;2.63;;;;;;;;;;5037594;28;20202;-81
2022/04/09 07:36:02;;;;;;;3.00;2.70;;;;;;;;;;5034923;28;20229;-82
2022/04/09 07:38:29;;;;;;;6.05;3.03;;;;;;;;;;5035225;28;20599;-82
2022/04/09 07:40:56;;;;;;;1.98;1.88;;;;;;;;;;5034552;28;20209;-81
2022/04/09 07:43:25;;;;;;;5.53;2.85;;;;;;;;;;5035423;28;20580;-82
2022/04/09 07:45:52;;;;;;;4.65;2.70;;;;;;;;;;5034964;28;20244;-81
2022/04/09 07:48:20;;;;;;;2.70;2.45;;;;;;;;;;5036161;28;20626;-80
2022/04/09 07:50:47;;;;;;;4.22;2.50;;;;;;;;;;5035444;28;20208;-82
2022/04/09 07:53:14;;;;;;;2.75;2.55;;;;;;;;;;5035213;28;20206;-82
2022/04/09 07:55:42;;;;;;;2.45;2.25;;;;;;;;;;5033616;28;20638;-81
2022/04/09 07:58:09;;;;;;;3.88;2.55;;;;;;;;;;5036613;28;20226;-81
2022/04/09 08:00:38;;;;;;;1.70;1.60;;;;;;;;;;5035925;28;20202;-83
2022/04/09 08:03:05;;;;;;;3.88;2.88;;;;;;;;;;5035299;28;20198;-81
2022/04/09 08:05:33;;;;;;;10.77;2.45;;;;;;;;;;5035635;28;20226;-81
2022/04/09 08:08:01;;;;;;;4.57;2.28;;;;;;;;;;5035498;28;20588;-82
2022/04/09 08:10:28;;;;;;;3.17;2.10;;;;;;;;;;5034083;28;20594;-80
2022/04/09 08:12:56;;;;;;;3.80;2.25;;;;;;;;;;5035993;28;20238;-83
2022/04/09 08:15:24;;;;;;;1.80;1.70;;;;;;;;;;5036909;28;20244;-82
2022/04/09 08:17:54;;;;;;;3.47;1.80;;;;;;;;;;5035539;28;20214;-82
2022/04/09 08:20:22;;;;;;;4.30;1.83;;;;;;;;;;5036615;28;20230;-81
2022/04/09 08:22:49;;;;;;;3.08;1.83;;;;;;;;;;5036501;28;20202;-82
2022/04/09 08:25:17;;;;;;;2.92;2.00;;;;;;;;;;5037270;28;20261;-81
2022/04/09 08:27:45;;;;;;;2.85;2.03;;;;;;;;;;5034400;28;20199;-82
2022/04/09 08:30:14;;;;;;;7.65;2.70;;;;;;;;;;5036898;28;20218;-81
2022/04/09 08:32:41;;;;;;;4.97;2.10;;;;;;;;;;5035660;28;20258;-82
2022/04/09 08:35:10;;;;;;;3.80;2.05;;;;;;;;;;5035960;28;20675;-81
2022/04/09 08:37:38;;;;;;;2.95;1.92;;;;;;;;;;5035179;28;20211;-82
2022/04/09 08:40:07;;;;;;;2.40;2.20;;;;;;;;;;5034931;28;20268;-80
2022/04/09 08:42:36;;;;;;;2.35;2.15;;;;;;;;;;5032295;28;20210;-82
2022/04/09 08:45:03;;;;;;;3.55;2.28;;;;;;;;;;5030072;28;20288;-82
2022/04/09 08:47:33;;;;;;;2.15;1.70;;;;;;;;;;5030748;28;20209;-83
2022/04/09 08:50:00;;;;;;;1.83;1.70;;;;;;;;;;5025178;28;20263;-82
2022/04/09 08:52:29;;;;;;;2.67;1.60;;;;;;;;;;5022142;28;20202;-81
2022/04/09 08:54:59;;;;;;;3.97;2.10;;;;;;;;;;5024194;28;20250;-81
2022/04/09 08:57:26;;;;;;;2.67;1.10;;;;;;;;;;5025162;28;20211;-84
2022/04/09 08:59:54;;;;;;;2.45;1.95;;;;;;;;;;5036309;28;20222;-80
2022/04/09 09:02:21;;;;;;;2.85;2.15;;;;;;;;;;5027138;28;20202;-82
2022/04/09 09:04:49;;;;;;;5.13;2.15;;;;;;;;;;5035561;28;20737;-81
2022/04/09 09:07:21;;;;;;;5.10;2.08;;;;;;;;;;5026483;28;20214;-80
2022/04/09 09:09:51;;;;;;;1.60;1.50;;;;;;;;;;5024101;28;20199;-81
2022/04/09 09:12:29;;;;;;;2.97;2.45;;;;;;;;;;5017147;28;20206;-82
2022/04/09 09:14:58;;;;;;;3.25;1.85;;;;;;;;;;5016199;28;20227;-81
2022/04/09 09:17:30;;;;;;;7.20;2.00;;;;;;;;;;5018805;28;20659;-81
2022/04/09 09:19:59;;;;;;;6.25;2.22;;;;;;;;;;5022340;28;20219;-82
2022/04/09 09:22:37;;;;;;;1.80;1.70;;;;;;;;;;5026152;28;20221;-82
2022/04/09 09:25:09;;;;;;;3.80;1.95;;;;;;;;;;5021476;28;20321;-83
2022/04/09 09:27:37;;;;;;;4.30;2.05;;;;;;;;;;5018804;28;20631;-82
2022/04/09 09:30:05;;;;;;;3.80;1.83;;;;;;;;;;5019951;28;20204;-82
2022/04/09 09:32:34;;;;;;;2.22;1.70;;;;;;;;;;5025786;28;20667;-81
2022/04/09 09:35:01;;;;;;;5.80;2.08;;;;;;;;;;5021421;28;20215;-81
2022/04/09 09:37:31;;;;;;;3.53;1.85;;;;;;;;;;5031874;28;20235;-81
2022/04/09 09:39:59;;;;;;;5.25;2.38;;;;;;;;;;5035905;28;20218;-80
2022/04/09 09:42:27;;;;;;;3.60;2.63;;;;;;;;;;5034208;28;20209;-81
2022/04/09 09:44:55;;;;;;;2.97;1.90;;;;;;;;;;5022653;28;20222;-81
2022/04/09 09:47:23;;;;;;;2.80;2.13;;;;;;;;;;5024993;28;20303;-80
2022/04/09 09:49:55;;;;;;;2.90;1.70;;;;;;;;;;5032773;28;20207;-81
2022/04/09 09:52:27;;;;;;;4.95;2.53;;;;;;;;;;5032182;28;20705;-79
2022/04/09 09:54:56;;;;;;;2.47;1.92;;;;;;;;;;5033632;28;20226;-80
2022/04/09 09:57:26;;;;;;;4.00;1.70;;;;;;;;;;5025656;28;20244;-81
2022/04/09 09:59:57;;;;;;;1.70;1.60;;;;;;;;;;5023186;28;20222;-80
2022/04/09 10:02:26;;;;;;;2.30;1.65;;;;;;;;;;5026597;28;20229;-80
2022/04/09 10:04:53;;;;;;;3.78;1.95;;;;;;;;;;5020694;28;20309;-81
2022/04/09 10:07:22;;;;;;;2.75;1.63;;;;;;;;;;5027529;28;20203;-82
2022/04/09 10:09:50;;;;;;;3.35;1.70;;;;;;;;;;5031349;28;20206;-81
2022/04/09 10:12:20;;;;;;;2.50;2.30;;;;;;;;;;5027582;28;20248;-82
2022/04/09 10:14:51;;;;;;;2.42;1.80;;;;;;;;;;5031570;28;20227;-84
2022/04/09 10:17:21;;;;;;;2.17;1.67;;;;;;;;;;5021910;28;20618;-81
2022/04/09 10:19:55;;;;;;;2.63;1.70;;;;;;;;;;5024426;28;20215;-81
2022/04/09 10:22:24;;;;;;;4.50;3.00;;;;;;;;;;5022846;28;20198;-81
2022/04/09 10:24:52;;;;;;;3.28;2.97;;;;;;;;;;5023352;28;20215;-80
2022/04/09 10:27:40;;;;;;;3.58;2.40;;;;;;;;;;5025861;28;20264;-80
2022/04/09 10:30:21;;;;;;;2.15;1.67;;;;;;;;;;5029294;28;20666;-80
2022/04/09 10:32:53;;;;;;;2.47;1.70;;;;;;;;;;5024200;28;20203;-81
2022/04/09 10:35:30;;;;;;;2.50;1.88;;;;;;;;;;5016614;28;20226;-80
2022/04/09 10:38:23;;;;;;;3.33;1.92;;;;;;;;;;5025194;28;20202;-81
2022/04/09 10:41:28;;;;;;;2.10;2.00;;;;;;;;;;5015834;28;20254;-83
2022/04/09 10:43:59;;;;;;;1.92;1.52;;;;;;;;;;5015296;28;20305;-80
2022/04/09 10:46:47;;;;;;;2.35;1.73;;;;;;;;;;5016648;28;20199;-81
2022/04/09 10:49:27;;;;;;;2.10;1.88;;;;;;;;;;5028495;28;20205;-82
2022/04/09 10:52:16;;;;;;;2.70;1.20;;;;;;;;;;5033531;28;20198;-83
2022/04/09 10:55:34;;;;;;;1.77;1.30;;;;;;;;;;5033809;28;20218;-81
2022/04/09 10:58:08;;;;;;;1.40;1.30;;;;;;;;;;5034366;28;20241;-81
2022/04/09 11:00:37;;;;;;;2.95;1.67;;;;;;;;;;5029950;28;20229;-82
2022/04/09 11:03:16;;;;;;;2.80;1.80;;;;;;;;;;5029156;28;20198;-81
2022/04/09 11:05:45;;;;;;;3.75;1.77;;;;;;;;;;5023750;28;20261;-82
2022/04/09 11:08:15;;;;;;;3.00;1.75;;;;;;;;;;5032213;28;20199;-84
2022/04/09 11:10:43;;;;;;;2.33;1.40;;;;;;;;;;5034599;28;20201;-82
2022/04/09 11:13:12;;;;;;;2.17;1.83;;;;;;;;;;5032902;28;20230;-82
2022/04/09 11:15:40;;;;;;;3.00;2.08;;;;;;;;;;5025896;28;20229;-81
2022/04/09 11:18:08;;;;;;;1.95;1.60;;;;;;;;;;5022097;28;20203;-82
2022/04/09 11:20:37;;;;;;;2.10;1.60;;;;;;;;;;5034771;28;20274;-83
2022/04/09 11:23:15;;;;;;;3.97;1.67;;;;;;;;;;5029379;28;20225;-83
2022/04/09 11:25:45;;;;;;;2.88;1.20;;;;;;;;;;5035974;28;20648;-84
2022/04/09 11:28:14;;;;;;;3.97;1.90;;;;;;;;;;5037116;28;20683;-83
2022/04/09 11:30:54;;;;;;;4.63;1.90;;;;;;;;;;5036208;28;20217;-82
2022/04/09 11:33:22;;;;;;;2.05;1.77;;;;;;;;;;5033921;28;20222;-82
2022/04/09 11:35:49;;;;;;;1.85;1.42;;;;;;;;;;5030130;28;20587;-86
2022/04/09 11:38:18;;;;;;;6.32;2.20;;;;;;;;;;5026435;28;20582;-85
2022/04/09 11:40:49;;;;;;;1.55;1.33;;;;;;;;;;5027179;28;20617;-81
2022/04/09 11:43:19;;;;;;;1.67;1.35;;;;;;;;;;5023533;28;20195;-83
2022/04/09 11:45:47;;;;;;;3.63;1.75;;;;;;;;;;5029735;28;20222;-82
2022/04/09 11:48:17;;;;;;;2.20;1.35;;;;;;;;;;5026145;28;20203;-81
2022/04/09 11:50:46;;;;;;;1.95;1.65;;;;;;;;;;5033853;28;20261;-82
2022/04/09 11:53:17;;;;;;;3.22;1.80;;;;;;;;;;5024583;28;20282;-81
2022/04/09 11:55:46;;;;;;;1.00;0.90;;;;;;;;;;5025506;28;20606;-81
2022/04/09 11:58:15;;;;;;;1.17;1.08;;;;;;;;;;5032184;28;20206;-84
2022/04/09 12:00:45;;;;;;;1.98;1.13;;;;;;;;;;5024122;28;20574;-84
2022/04/09 12:03:12;;;;;;;3.03;1.50;;;;;;;;;;5033793;28;20265;-82
2022/04/09 12:05:44;;;;;;;1.17;1.17;;;;;;;;;;5032856;28;20269;-82
2022/04/09 12:08:13;;;;;;;2.80;1.65;;;;;;;;;;5027108;28;20206;-81
2022/04/09 12:10:54;;;;;;;1.17;1.10;;;;;;;;;;5032319;28;20202;-81
2022/04/09 12:13:26;;;;;;;1.50;1.38;;;;;;;;;;5032201;28;20725;-80
2022/04/09 12:15:54;;;;;;;1.92;1.35;;;;;;;;;;5022166;28;20219;-80
2022/04/09 12:18:29;;;;;;;1.30;1.23;;;;;;;;;;5029822;28;20210;-80
2022/04/09 12:20:57;;;;;;;1.35;1.00;;;;;;;;;;5027788;28;20222;-80
2022/04/09 12:23:35;;;;;;;0.80;0.80;;;;;;;;;;5027709;28;20574;-81
2022/04/09 12:26:05;;;;;;;1.40;0.82;;;;;;;;;;5026445;28;20314;-82
2022/04/09 12:28:34;;;;;;;1.10;1.00;;;;;;;;;;5030244;28;20246;-80
2022/04/09 12:31:03;;;;;;;2.22;1.17;;;;;;;;;;5031926;28;20209;-79
2022/04/09 12:33:31;;;;;;;1.27;1.00;;;;;;;;;;5025779;28;20244;-80
2022/04/09 12:36:08;;;;;;;0.75;0.75;;;;;;;;;;5026642;28;20234;-79
2022/04/09 12:38:38;;;;;;;0.82;0.82;;;;;;;;;;5032146;28;20198;-81
2022/04/09 12:41:07;;;;;;;1.10;1.00;;;;;;;;;;5026618;28;20250;-81
2022/04/09 12:43:36;;;;;;;1.00;0.93;;;;;;;;;;5025910;28;20226;-80
2022/04/09 12:46:05;;;;;;;1.08;0.80;;;;;;;;;;5027360;28;20314;-80
2022/04/09 12:48:45;;;;;;;4.13;1.20;;;;;;;;;;5027913;28;20289;-82
2022/04/09 12:51:15;;;;;;;1.33;1.10;;;;;;;;;;5033492;28;20198;-80
2022/04/09 12:53:43;;;;;;;1.00;1.00;;;;;;;;;;5037296;28;20210;-81
2022/04/09 12:56:14;;;;;;;1.92;1.00;;;;;;;;;;5036538;28;20617;-81
2022/04/09 12:58:42;;;;;;;1.52;1.42;;;;;;;;;;5021965;28;20226;-80
2022/04/09 13:01:13;;;;;;;2.47;0.90;;;;;;;;;;5034234;28;20222;-80
2022/04/09 13:03:41;;;;;;;1.20;0.90;;;;;;;;;;5027118;28;20195;-80
2022/04/09 13:06:08;;;;;;;1.48;1.38;;;;;;;;;;5025091;28;20219;-81
2022/04/09 13:08:36;;;;;;;1.15;1.05;;;;;;;;;;5036993;28;20225;-82
2022/04/09 13:11:05;;;;;;;3.95;1.40;;;;;;;;;;5033756;28;20658;-81
2022/04/09 13:13:34;;;;;;;3.05;1.23;;;;;;;;;;5028907;28;20191;-81
2022/04/09 13:16:02;;;;;;;1.65;1.20;;;;;;;;;;5030107;28;20222;-80
2022/04/09 13:18:29;;;;;;;1.63;1.52;;;;;;;;;;5029969;28;20214;-80
2022/04/09 13:20:57;;;;;;;1.63;1.02;;;;;;;;;;5036291;28;20452;-81
2022/04/09 13:23:24;;;;;;;0.93;0.90;;;;;;;;;;5033772;28;20602;-79
2022/04/09 13:25:53;;;;;;;0.98;0.90;;;;;;;;;;5034570;28;20245;-81
2022/04/09 13:28:20;;;;;;;2.88;1.42;;;;;;;;;;5024379;28;20203;-82
2022/04/09 13:30:49;;;;;;;1.17;1.08;;;;;;;;;;5032599;28;20210;-86
2022/04/09 13:33:16;;;;;;;2.63;1.50;;;;;;;;;;5028591;28;20195;-82
2022/04/09 13:35:44;;;;;;;1.67;0.93;;;;;;;;;;5035067;28;20276;-81
2022/04/09 13:38:11;;;;;;;2.60;1.02;;;;;;;;;;5027880;28;20210;-83
2022/04/09 13:40:39;;;;;;;3.72;1.42;;;;;;;;;;5026900;28;20679;-79
2022/04/09 13:43:07;;;;;;;1.23;1.13;;;;;;;;;;5031099;28;20199;-80
2022/04/09 13:45:34;;;;;;;1.90;1.80;;;;;;;;;;5026367;28;20785;-81
2022/04/09 13:48:03;;;;;;;1.65;1.30;;;;;;;;;;5032014;28;20207;-81
2022/04/09 13:50:30;;;;;;;2.35;1.20;;;;;;;;;;5033653;28;20202;-86
2022/04/09 13:52:59;;;;;;;2.50;1.40;;;;;;;;;;5030450;28;20198;-81
2022/04/09 13:55:26;;;;;;;1.15;1.05;;;;;;;;;;5041452;28;20226;-81
2022/04/09 13:57:54;;;;;;;2.85;1.58;;;;;;;;;;5019719;28;20199;-82
2022/04/09 14:00:22;;;;;;;3.08;1.23;;;;;;;;;;5026589;28;20205;-82
2022/04/09 14:02:49;;;;;;;4.30;1.58;;;;;;;;;;5021969;28;20227;-81
2022/04/09 14:05:19;;;;;;;1.17;1.10;;;;;;;;;;5033990;28;20226;-82
2022/04/09 14:07:47;;;;;;;2.47;1.10;;;;;;;;;;5037800;28;20241;-81
2022/04/09 14:10:14;;;;;;;2.20;0.95;;;;;;;;;;5024997;28;20203;-81
2022/04/09 14:12:42;;;;;;;0.98;0.98;;;;;;;;;;5025883;28;20195;-81
2022/04/09 14:15:11;;;;;;;3.28;1.83;;;;;;;;;;5025826;28;20211;-80
2022/04/09 14:17:38;;;;;;;0.60;0.60;;;;;;;;;;5031497;28;20847;-78
2022/04/09 14:20:07;;;;;;;0.52;0.52;;;;;;;;;;5033492;28;20260;-79
2022/04/09 14:22:36;;;;;;;1.63;0.80;;;;;;;;;;5033718;28;20211;-79
2022/04/09 14:25:04;;;;;;;0.70;0.70;;;;;;;;;;5019272;28;20701;-79
2022/04/09 14:27:31;;;;;;;0.73;0.73;;;;;;;;;;5034285;28;20202;-80
2022/04/09 14:29:59;;;;;;;0.65;0.65;;;;;;;;;;5030450;28;20198;-80
2022/04/09 14:32:26;;;;;;;1.13;0.80;;;;;;;;;;5026093;28;20194;-79
2022/04/09 14:34:53;;;;;;;0.68;0.68;;;;;;;;;;5033319;28;20226;-79
2022/04/09 14:37:25;;;;;;;0.80;0.80;;;;;;;;;;5026237;28;20637;-78
2022/04/09 14:39:55;;;;;;;0.98;0.98;;;;;;;;;;5022667;28;20667;-80
2022/04/09 14:42:23;;;;;;;1.20;1.10;;;;;;;;;;5021273;28;20768;-78
2022/04/09 14:44:50;;;;;;;1.00;1.00;;;;;;;;;;5023283;28;20226;-78
2022/04/09 14:47:17;;;;;;;1.98;1.10;;;;;;;;;;5021109;28;20202;-78
2022/04/09 14:49:46;;;;;;;0.80;0.80;;;;;;;;;;5022926;28;20670;-79
2022/04/09 14:52:13;;;;;;;1.90;1.02;;;;;;;;;;5030146;28;20194;-78
2022/04/09 14:54:40;;;;;;;0.85;0.80;;;;;;;;;;5019706;28;20742;-79